sensor_id;sensor_type;location;lat;lon;timestamp;pressure;altitude;pressure_sealevel;temperature;humidity
33265;BME280;31404;53.974;-1.086;2022-12-01T00:00:36;102863.21;;;9.08;75.72
33265;BME280;31404;53.974;-1.086;2022-12-01T00:05:35;102866.18;;;9.07;75.63
33265;BME280;31404;53.974;-1.086;2022-12-01T00:10:34;102862.63;;;9.40;75.07
33265;BME280;31404;53.974;-1.086;2022-12-01T00:15:36;102857.86;;;9.56;74.60
33265;BME280;31404;53.974;-1.086;2022-12-01T00:20:35;102852.86;;;8.12;79.49
33265;BME280;31404;53.974;-1.086;2022-12-01T00:25:35;102851.00;;;8.26;79.63
33265;BME280;31404;53.974;-1.086;2022-12-01T00:30:35;102851.40;;;8.85;77.45
33265;BME280;31404;53.974;-1.086;2022-12-01T00:35:35;102855.65;;;8.86;77.85
33265;BME280;31404;53.974;-1.086;2022-12-01T00:40:35;102849.23;;;9.37;75.45
33265;BME280;31404;53.974;-1.086;2022-12-01T00:45:35;102838.59;;;10.20;73.22
33265;BME280;31404;53.974;-1.086;2022-12-01T00:50:35;102831.43;;;9.23;75.02
33265;BME280;31404;53.974;-1.086;2022-12-01T00:55:35;102823.42;;;9.39;74.63
33265;BME280;31404;53.974;-1.086;2022-12-01T01:00:35;102824.46;;;10.23;71.98
33265;BME280;31404;53.974;-1.086;2022-12-01T01:05:35;102834.47;;;7.87;79.40
33265;BME280;31404;53.974;-1.086;2022-12-01T01:10:37;102831.71;;;6.90;84.72
33265;BME280;31404;53.974;-1.086;2022-12-01T01:15:35;102825.32;;;8.14;80.47
33265;BME280;31404;53.974;-1.086;2022-12-01T01:20:35;102820.72;;;8.36;78.70
33265;BME280;31404;53.974;-1.086;2022-12-01T01:25:35;102819.08;;;6.42;88.01
33265;BME280;31404;53.974;-1.086;2022-12-01T01:35:35;102826.03;;;8.91;78.22
33265;BME280;31404;53.974;-1.086;2022-12-01T01:45:35;102828.55;;;8.74;79.19
33265;BME280;31404;53.974;-1.086;2022-12-01T01:50:35;102827.11;;;7.64;83.75
33265;BME280;31404;53.974;-1.086;2022-12-01T01:55:35;102829.18;;;8.73;79.65
33265;BME280;31404;53.974;-1.086;2022-12-01T02:00:36;102840.59;;;8.23;80.97
33265;BME280;31404;53.974;-1.086;2022-12-01T02:05:36;102847.76;;;9.33;77.31
33265;BME280;31404;53.974;-1.086;2022-12-01T02:30:38;102860.42;;;7.93;83.05
33265;BME280;31404;53.974;-1.086;2022-12-01T02:50:35;102825.26;;;6.75;87.14
33265;BME280;31404;53.974;-1.086;2022-12-01T02:55:35;102821.89;;;7.69;84.48
33265;BME280;31404;53.974;-1.086;2022-12-01T03:00:35;102827.54;;;7.28;86.66
33265;BME280;31404;53.974;-1.086;2022-12-01T03:20:38;102832.68;;;7.68;83.52
33265;BME280;31404;53.974;-1.086;2022-12-01T03:25:35;102848.31;;;7.08;86.00
33265;BME280;31404;53.974;-1.086;2022-12-01T03:30:36;102845.72;;;6.95;86.88
33265;BME280;31404;53.974;-1.086;2022-12-01T03:35:38;102847.84;;;7.84;83.71
33265;BME280;31404;53.974;-1.086;2022-12-01T03:40:36;102849.06;;;7.88;83.70
33265;BME280;31404;53.974;-1.086;2022-12-01T04:00:36;102852.31;;;7.82;83.14
33265;BME280;31404;53.974;-1.086;2022-12-01T04:05:35;102847.86;;;9.09;78.80
33265;BME280;31404;53.974;-1.086;2022-12-01T04:10:35;102856.48;;;8.50;78.92
33265;BME280;31404;53.974;-1.086;2022-12-01T04:15:35;102846.25;;;8.38;80.69
33265;BME280;31404;53.974;-1.086;2022-12-01T04:20:35;102842.14;;;6.90;84.46
33265;BME280;31404;53.974;-1.086;2022-12-01T04:25:35;102842.76;;;7.84;81.99
33265;BME280;31404;53.974;-1.086;2022-12-01T04:30:34;102836.49;;;7.86;82.14
33265;BME280;31404;53.974;-1.086;2022-12-01T04:35:35;102837.54;;;8.42;79.83
33265;BME280;31404;53.974;-1.086;2022-12-01T04:40:37;102841.65;;;7.19;84.18
33265;BME280;31404;53.974;-1.086;2022-12-01T04:45:34;102836.00;;;8.41;79.65
33265;BME280;31404;53.974;-1.086;2022-12-01T04:50:35;102830.15;;;8.23;81.08
33265;BME280;31404;53.974;-1.086;2022-12-01T04:55:36;102834.26;;;7.94;81.33
33265;BME280;31404;53.974;-1.086;2022-12-01T05:00:36;102826.88;;;8.35;80.83
33265;BME280;31404;53.974;-1.086;2022-12-01T05:05:34;102833.71;;;8.92;77.81
33265;BME280;31404;53.974;-1.086;2022-12-01T05:10:35;102826.57;;;8.65;79.47
33265;BME280;31404;53.974;-1.086;2022-12-01T05:15:35;102822.41;;;9.15;77.25
33265;BME280;31404;53.974;-1.086;2022-12-01T05:20:34;102829.02;;;8.15;81.49
33265;BME280;31404;53.974;-1.086;2022-12-01T05:25:35;102829.49;;;8.37;79.41
33265;BME280;31404;53.974;-1.086;2022-12-01T05:30:35;102830.50;;;7.70;80.99
33265;BME280;31404;53.974;-1.086;2022-12-01T05:35:35;102837.77;;;6.95;86.40
33265;BME280;31404;53.974;-1.086;2022-12-01T05:40:36;102839.81;;;8.08;81.74
33265;BME280;31404;53.974;-1.086;2022-12-01T05:45:35;102841.39;;;7.55;82.39
33265;BME280;31404;53.974;-1.086;2022-12-01T05:50:37;102839.11;;;8.49;80.53
33265;BME280;31404;53.974;-1.086;2022-12-01T05:55:35;102844.42;;;6.98;84.41
33265;BME280;31404;53.974;-1.086;2022-12-01T06:00:35;102844.31;;;7.77;83.64
33265;BME280;31404;53.974;-1.086;2022-12-01T06:05:35;102842.26;;;7.98;83.26
33265;BME280;31404;53.974;-1.086;2022-12-01T06:10:35;102854.52;;;7.50;84.15
33265;BME280;31404;53.974;-1.086;2022-12-01T06:15:35;102859.18;;;8.08;82.35
33265;BME280;31404;53.974;-1.086;2022-12-01T06:20:35;102869.24;;;7.40;83.84
33265;BME280;31404;53.974;-1.086;2022-12-01T06:25:37;102877.15;;;7.02;86.34
33265;BME280;31404;53.974;-1.086;2022-12-01T06:30:35;102872.82;;;7.60;83.64
33265;BME280;31404;53.974;-1.086;2022-12-01T06:35:35;102881.18;;;6.53;87.49
33265;BME280;31404;53.974;-1.086;2022-12-01T06:40:35;102880.95;;;7.74;84.29
33265;BME280;31404;53.974;-1.086;2022-12-01T06:45:35;102879.89;;;8.19;82.41
33265;BME280;31404;53.974;-1.086;2022-12-01T06:50:34;102880.38;;;7.68;83.69
33265;BME280;31404;53.974;-1.086;2022-12-01T06:55:35;102876.54;;;6.74;86.82
33265;BME280;31404;53.974;-1.086;2022-12-01T07:00:35;102878.10;;;6.97;86.09
33265;BME280;31404;53.974;-1.086;2022-12-01T07:05:35;102877.90;;;7.78;84.49
33265;BME280;31404;53.974;-1.086;2022-12-01T07:10:35;102886.59;;;7.52;85.38
33265;BME280;31404;53.974;-1.086;2022-12-01T07:15:37;102891.74;;;7.81;83.25
33265;BME280;31404;53.974;-1.086;2022-12-01T07:20:34;102900.16;;;6.79;87.43
33265;BME280;31404;53.974;-1.086;2022-12-01T07:25:35;102907.86;;;6.92;86.88
33265;BME280;31404;53.974;-1.086;2022-12-01T07:30:35;102916.44;;;7.63;83.49
33265;BME280;31404;53.974;-1.086;2022-12-01T07:35:35;102920.18;;;7.36;84.40
33265;BME280;31404;53.974;-1.086;2022-12-01T07:40:35;102931.34;;;7.94;84.23
33265;BME280;31404;53.974;-1.086;2022-12-01T07:45:35;102937.47;;;6.69;87.43
33265;BME280;31404;53.974;-1.086;2022-12-01T07:50:34;102941.45;;;7.04;86.16
33265;BME280;31404;53.974;-1.086;2022-12-01T07:55:35;102948.90;;;6.89;86.85
33265;BME280;31404;53.974;-1.086;2022-12-01T08:00:36;102954.56;;;6.13;90.97
33265;BME280;31404;53.974;-1.086;2022-12-01T08:05:35;102952.80;;;7.24;85.16
33265;BME280;31404;53.974;-1.086;2022-12-01T08:10:35;102959.05;;;7.46;85.83
33265;BME280;31404;53.974;-1.086;2022-12-01T08:15:35;102959.72;;;6.37;89.52
33265;BME280;31404;53.974;-1.086;2022-12-01T08:20:34;102975.25;;;5.66;94.71
33265;BME280;31404;53.974;-1.086;2022-12-01T08:25:35;102968.42;;;6.58;88.40
33265;BME280;31404;53.974;-1.086;2022-12-01T08:30:35;102961.91;;;7.20;86.41
33265;BME280;31404;53.974;-1.086;2022-12-01T08:35:35;102957.96;;;6.67;88.44
33265;BME280;31404;53.974;-1.086;2022-12-01T08:40:35;102956.14;;;5.92;90.18
33265;BME280;31404;53.974;-1.086;2022-12-01T08:45:35;102949.42;;;6.41;89.33
33265;BME280;31404;53.974;-1.086;2022-12-01T08:50:34;102957.81;;;6.77;87.02
33265;BME280;31404;53.974;-1.086;2022-12-01T08:55:35;102970.06;;;6.20;90.50
33265;BME280;31404;53.974;-1.086;2022-12-01T09:00:35;102965.85;;;6.94;88.62
33265;BME280;31404;53.974;-1.086;2022-12-01T09:05:35;102970.72;;;6.77;87.11
33265;BME280;31404;53.974;-1.086;2022-12-01T09:10:35;102965.83;;;6.69;88.83
33265;BME280;31404;53.974;-1.086;2022-12-01T09:15:35;102963.80;;;6.09;91.48
33265;BME280;31404;53.974;-1.086;2022-12-01T09:20:35;102953.82;;;6.43;89.74
33265;BME280;31404;53.974;-1.086;2022-12-01T09:25:35;102966.30;;;5.61;92.12
33265;BME280;31404;53.974;-1.086;2022-12-01T09:30:35;102960.35;;;5.80;91.71
33265;BME280;31404;53.974;-1.086;2022-12-01T09:35:35;102962.82;;;5.52;93.53
33265;BME280;31404;53.974;-1.086;2022-12-01T09:50:35;102955.76;;;5.28;92.53
33265;BME280;31404;53.974;-1.086;2022-12-01T09:55:35;102949.86;;;6.76;90.29
33265;BME280;31404;53.974;-1.086;2022-12-01T10:10:38;102947.66;;;5.83;91.10
33265;BME280;31404;53.974;-1.086;2022-12-01T10:30:39;102949.44;;;4.63;98.61
33265;BME280;31404;53.974;-1.086;2022-12-01T10:35:35;102955.24;;;4.80;98.90
33265;BME280;31404;53.974;-1.086;2022-12-01T10:40:36;102953.78;;;5.14;98.00
33265;BME280;31404;53.974;-1.086;2022-12-01T10:50:35;102954.04;;;5.56;97.16
33265;BME280;31404;53.974;-1.086;2022-12-01T10:55:37;102953.60;;;4.78;97.20
33265;BME280;31404;53.974;-1.086;2022-12-01T11:00:38;102955.62;;;4.24;100.00
33265;BME280;31404;53.974;-1.086;2022-12-01T11:05:33;102954.08;;;5.22;98.44
33265;BME280;31404;53.974;-1.086;2022-12-01T11:10:36;102945.59;;;5.80;95.61
33265;BME280;31404;53.974;-1.086;2022-12-01T11:15:39;102947.23;;;5.73;95.39
33265;BME280;31404;53.974;-1.086;2022-12-01T11:20:37;102958.60;;;5.69;95.38
33265;BME280;31404;53.974;-1.086;2022-12-01T11:25:35;102951.66;;;5.21;96.20
33265;BME280;31404;53.974;-1.086;2022-12-01T11:30:35;102946.28;;;6.07;94.14
33265;BME280;31404;53.974;-1.086;2022-12-01T11:35:37;102943.92;;;5.30;97.49
33265;BME280;31404;53.974;-1.086;2022-12-01T11:45:37;102937.34;;;6.48;91.49
33265;BME280;31404;53.974;-1.086;2022-12-01T11:50:37;102930.54;;;5.52;95.10
33265;BME280;31404;53.974;-1.086;2022-12-01T11:55:35;102925.09;;;6.37;93.07
33265;BME280;31404;53.974;-1.086;2022-12-01T12:40:41;102893.86;;;5.20;99.63
33265;BME280;31404;53.974;-1.086;2022-12-01T12:55:38;102889.11;;;6.55;94.00
33265;BME280;31404;53.974;-1.086;2022-12-01T13:00:36;102888.76;;;5.16;98.04
33265;BME280;31404;53.974;-1.086;2022-12-01T13:10:38;102886.14;;;5.87;96.00
33265;BME280;31404;53.974;-1.086;2022-12-01T13:15:36;102887.47;;;5.52;98.55
33265;BME280;31404;53.974;-1.086;2022-12-01T13:20:35;102887.49;;;5.05;100.00
33265;BME280;31404;53.974;-1.086;2022-12-01T13:25:36;102890.73;;;4.91;100.00
33265;BME280;31404;53.974;-1.086;2022-12-01T13:30:35;102886.87;;;5.41;100.00
33265;BME280;31404;53.974;-1.086;2022-12-01T13:35:38;102887.30;;;5.69;97.64
33265;BME280;31404;53.974;-1.086;2022-12-01T13:40:35;102884.26;;;4.33;100.00
33265;BME280;31404;53.974;-1.086;2022-12-01T13:45:36;102881.10;;;5.40;100.00
33265;BME280;31404;53.974;-1.086;2022-12-01T14:00:35;102883.70;;;6.33;97.54
33265;BME280;31404;53.974;-1.086;2022-12-01T14:10:36;102874.22;;;6.44;93.39
33265;BME280;31404;53.974;-1.086;2022-12-01T14:15:38;102874.91;;;5.69;98.34
33265;BME280;31404;53.974;-1.086;2022-12-01T14:25:35;102866.56;;;6.20;94.66
33265;BME280;31404;53.974;-1.086;2022-12-01T14:35:35;102870.47;;;5.20;100.00
33265;BME280;31404;53.974;-1.086;2022-12-01T14:40:35;102868.21;;;6.38;95.75
33265;BME280;31404;53.974;-1.086;2022-12-01T14:50:38;102874.86;;;5.42;100.00
33265;BME280;31404;53.974;-1.086;2022-12-01T14:55:38;102866.20;;;6.52;94.54
33265;BME280;31404;53.974;-1.086;2022-12-01T15:00:36;102872.42;;;5.63;100.00
33265;BME280;31404;53.974;-1.086;2022-12-01T15:05:38;102868.26;;;5.59;100.00
33265;BME280;31404;53.974;-1.086;2022-12-01T15:10:35;102871.30;;;4.93;100.00
33265;BME280;31404;53.974;-1.086;2022-12-01T15:15:34;102866.31;;;5.45;100.00
33265;BME280;31404;53.974;-1.086;2022-12-01T15:20:36;102864.04;;;5.93;100.00
33265;BME280;31404;53.974;-1.086;2022-12-01T15:25:35;102872.48;;;4.68;100.00
33265;BME280;31404;53.974;-1.086;2022-12-01T15:30:35;102868.59;;;5.09;100.00
33265;BME280;31404;53.974;-1.086;2022-12-01T15:35:35;102870.35;;;4.82;100.00
33265;BME280;31404;53.974;-1.086;2022-12-01T15:40:35;102874.04;;;4.31;100.00
33265;BME280;31404;53.974;-1.086;2022-12-01T15:55:37;102865.98;;;4.72;100.00
33265;BME280;31404;53.974;-1.086;2022-12-01T16:00:35;102867.29;;;4.92;100.00
33265;BME280;31404;53.974;-1.086;2022-12-01T16:05:36;102865.13;;;5.39;100.00
33265;BME280;31404;53.974;-1.086;2022-12-01T16:10:36;102871.54;;;4.88;100.00
33265;BME280;31404;53.974;-1.086;2022-12-01T16:20:39;102873.20;;;5.13;100.00
33265;BME280;31404;53.974;-1.086;2022-12-01T16:25:38;102868.55;;;4.28;100.00
33265;BME280;31404;53.974;-1.086;2022-12-01T16:30:37;102875.76;;;5.65;100.00
33265;BME280;31404;53.974;-1.086;2022-12-01T16:35:34;102877.98;;;4.88;100.00
33265;BME280;31404;53.974;-1.086;2022-12-01T16:40:35;102876.99;;;4.69;100.00
33265;BME280;31404;53.974;-1.086;2022-12-01T16:45:35;102869.91;;;6.60;96.42
33265;BME280;31404;53.974;-1.086;2022-12-01T16:50:35;102865.05;;;6.35;98.32
33265;BME280;31404;53.974;-1.086;2022-12-01T16:55:40;102862.96;;;6.33;96.12
33265;BME280;31404;53.974;-1.086;2022-12-01T17:00:35;102869.00;;;6.06;97.87
33265;BME280;31404;53.974;-1.086;2022-12-01T17:05:34;102869.31;;;5.31;100.00
33265;BME280;31404;53.974;-1.086;2022-12-01T17:10:38;102867.04;;;4.67;100.00
33265;BME280;31404;53.974;-1.086;2022-12-01T17:15:39;102869.61;;;5.15;100.00
33265;BME280;31404;53.974;-1.086;2022-12-01T17:20:35;102868.32;;;4.81;100.00
33265;BME280;31404;53.974;-1.086;2022-12-01T17:30:35;102855.19;;;6.04;100.00
33265;BME280;31404;53.974;-1.086;2022-12-01T17:35:37;102856.42;;;6.07;99.20
33265;BME280;31404;53.974;-1.086;2022-12-01T17:40:35;102850.37;;;5.93;98.84
33265;BME280;31404;53.974;-1.086;2022-12-01T17:45:35;102857.15;;;6.76;94.65
33265;BME280;31404;53.974;-1.086;2022-12-01T17:50:36;102855.65;;;6.37;95.88
33265;BME280;31404;53.974;-1.086;2022-12-01T17:55:37;102861.69;;;5.69;99.41
33265;BME280;31404;53.974;-1.086;2022-12-01T18:00:35;102858.44;;;5.68;100.00
33265;BME280;31404;53.974;-1.086;2022-12-01T18:05:35;102857.87;;;6.51;98.48
33265;BME280;31404;53.974;-1.086;2022-12-01T18:10:36;102860.59;;;6.84;94.65
33265;BME280;31404;53.974;-1.086;2022-12-01T18:25:35;102855.89;;;6.61;94.11
33265;BME280;31404;53.974;-1.086;2022-12-01T18:30:35;102846.89;;;7.57;92.06
33265;BME280;31404;53.974;-1.086;2022-12-01T18:40:35;102844.42;;;7.22;91.08
33265;BME280;31404;53.974;-1.086;2022-12-01T18:50:35;102841.29;;;7.76;92.20
33265;BME280;31404;53.974;-1.086;2022-12-01T18:55:36;102846.09;;;6.68;93.35
33265;BME280;31404;53.974;-1.086;2022-12-01T19:00:35;102840.57;;;6.34;94.86
33265;BME280;31404;53.974;-1.086;2022-12-01T19:05:37;102846.84;;;4.71;100.00
33265;BME280;31404;53.974;-1.086;2022-12-01T19:10:35;102843.51;;;5.96;100.00
33265;BME280;31404;53.974;-1.086;2022-12-01T19:15:36;102844.87;;;7.52;99.42
33265;BME280;31404;53.974;-1.086;2022-12-01T19:25:35;102858.83;;;7.06;94.23
33265;BME280;31404;53.974;-1.086;2022-12-01T19:30:34;102856.73;;;7.34;91.78
33265;BME280;31404;53.974;-1.086;2022-12-01T19:35:35;102859.76;;;5.91;100.00
33265;BME280;31404;53.974;-1.086;2022-12-01T19:40:36;102867.15;;;4.84;100.00
33265;BME280;31404;53.974;-1.086;2022-12-01T19:45:36;102869.24;;;6.35;96.17
33265;BME280;31404;53.974;-1.086;2022-12-01T19:50:35;102868.50;;;6.73;96.47
33265;BME280;31404;53.974;-1.086;2022-12-01T19:55:36;102875.18;;;6.62;95.53
33265;BME280;31404;53.974;-1.086;2022-12-01T20:00:35;102880.52;;;5.34;100.00
33265;BME280;31404;53.974;-1.086;2022-12-01T20:05:35;102874.50;;;6.54;95.61
33265;BME280;31404;53.974;-1.086;2022-12-01T20:10:35;102884.79;;;5.17;100.00
33265;BME280;31404;53.974;-1.086;2022-12-01T20:15:35;102880.89;;;5.38;100.00
33265;BME280;31404;53.974;-1.086;2022-12-01T20:20:36;102876.50;;;6.83;97.13
33265;BME280;31404;53.974;-1.086;2022-12-01T20:25:35;102874.20;;;6.72;95.49
33265;BME280;31404;53.974;-1.086;2022-12-01T20:35:35;102879.66;;;5.90;100.00
33265;BME280;31404;53.974;-1.086;2022-12-01T20:40:35;102895.16;;;5.26;100.00
33265;BME280;31404;53.974;-1.086;2022-12-01T20:45:36;102889.37;;;5.89;100.00
33265;BME280;31404;53.974;-1.086;2022-12-01T20:50:36;102898.32;;;4.45;100.00
33265;BME280;31404;53.974;-1.086;2022-12-01T20:55:36;102890.57;;;6.11;100.00
33265;BME280;31404;53.974;-1.086;2022-12-01T21:00:38;102892.48;;;6.32;99.87
33265;BME280;31404;53.974;-1.086;2022-12-01T21:05:38;102893.07;;;6.28;98.31
33265;BME280;31404;53.974;-1.086;2022-12-01T21:10:35;102891.51;;;6.41;96.54
33265;BME280;31404;53.974;-1.086;2022-12-01T21:20:37;102889.63;;;4.90;100.00
33265;BME280;31404;53.974;-1.086;2022-12-01T21:25:36;102883.39;;;3.83;100.00
33265;BME280;31404;53.974;-1.086;2022-12-01T21:30:35;102884.55;;;4.19;100.00
33265;BME280;31404;53.974;-1.086;2022-12-01T21:35:35;102884.11;;;3.35;100.00
33265;BME280;31404;53.974;-1.086;2022-12-01T21:40:34;102875.74;;;5.98;100.00
33265;BME280;31404;53.974;-1.086;2022-12-01T21:45:35;102881.44;;;5.56;99.82
33265;BME280;31404;53.974;-1.086;2022-12-01T21:50:35;102889.83;;;4.57;100.00
33265;BME280;31404;53.974;-1.086;2022-12-01T22:00:36;102892.07;;;2.09;100.00
33265;BME280;31404;53.974;-1.086;2022-12-01T22:05:38;102887.30;;;4.03;100.00
33265;BME280;31404;53.974;-1.086;2022-12-01T22:20:37;102885.93;;;4.94;100.00
33265;BME280;31404;53.974;-1.086;2022-12-01T22:25:35;102890.18;;;3.71;100.00
33265;BME280;31404;53.974;-1.086;2022-12-01T22:30:35;102888.39;;;4.63;100.00
33265;BME280;31404;53.974;-1.086;2022-12-01T22:40:37;102892.61;;;5.49;99.71
33265;BME280;31404;53.974;-1.086;2022-12-01T22:45:35;102894.97;;;4.41;100.00
33265;BME280;31404;53.974;-1.086;2022-12-01T22:50:36;102892.51;;;3.88;100.00
33265;BME280;31404;53.974;-1.086;2022-12-01T22:55:35;102891.89;;;3.73;100.00
33265;BME280;31404;53.974;-1.086;2022-12-01T23:00:35;102890.99;;;4.54;100.00
33265;BME280;31404;53.974;-1.086;2022-12-01T23:05:35;102888.25;;;5.98;97.53
33265;BME280;31404;53.974;-1.086;2022-12-01T23:10:37;102898.30;;;5.73;98.07
33265;BME280;31404;53.974;-1.086;2022-12-01T23:15:37;102896.84;;;5.30;97.80
33265;BME280;31404;53.974;-1.086;2022-12-01T23:20:35;102898.17;;;4.38;100.00
33265;BME280;31404;53.974;-1.086;2022-12-01T23:25:35;102890.14;;;6.72;93.11
33265;BME280;31404;53.974;-1.086;2022-12-01T23:30:37;102893.59;;;4.93;100.00
33265;BME280;31404;53.974;-1.086;2022-12-01T23:40:35;102870.06;;;4.70;99.35
33265;BME280;31404;53.974;-1.086;2022-12-01T23:45:35;102868.71;;;3.24;100.00
33265;BME280;31404;53.974;-1.086;2022-12-01T23:50:35;102855.96;;;3.67;100.00
33265;BME280;31404;53.974;-1.086;2022-12-01T23:55:35;102846.18;;;4.72;100.00
